Time;durP1;ratioP1;P1;durP2;ratioP2;P2;SDS_P1;SDS_P2;PMS_P1;PMS_P2;Temp;Humidity;BMP_temperature;BMP_pressure;BME280_temperature;BME280_humidity;BME280_pressure;Samples;Min_cycle;Max_cycle;Signal;HPM_P1;HPM_P2
2022/02/11 00:00:01;;;;;;;9.23;3.02;;;;;;;6.22;74.13;102243.55;1884167;76;21536;-66
2022/02/11 00:02:17;;;;;;;9.38;3.22;;;;;;;6.24;74.01;102245.30;1879949;76;21066;-66
2022/02/11 00:05:10;;;;;;;3.55;2.62;;;;;;;6.25;74.37;102235.25;1884827;76;21184;-66
2022/02/11 00:07:21;;;;;;;10.68;3.65;;;;;;;6.25;74.52;102235.69;1880366;76;21058;-65
2022/02/11 00:09:50;;;;;;;7.47;2.98;;;;;;;6.22;75.00;102248.34;1884973;76;21574;-65
2022/02/11 00:12:19;;;;;;;3.37;1.37;;;;;;;6.19;75.46;102232.19;1884844;76;21070;-65
2022/02/11 00:15:37;;;;;;;11.97;4.80;;;;;;;6.16;75.62;102250.50;1884816;76;21489;-66
2022/02/11 00:17:24;;;;;;;7.33;3.22;;;;;;;6.15;75.56;102254.42;1877601;76;21098;-66
2022/02/11 00:19:53;;;;;;;11.15;3.62;;;;;;;6.13;75.92;102257.47;1884881;76;21570;-66
2022/02/11 00:22:22;;;;;;;6.97;3.67;;;;;;;6.11;75.83;102257.90;1884840;76;21058;-67
2022/02/11 00:24:52;;;;;;;6.03;3.15;;;;;;;6.10;75.78;102257.44;1884898;76;21526;-68
2022/02/11 00:33:04;;;;;;;;;;;;;;;6.06;76.46;102264.84;1887605;76;21023;-67
2022/02/11 00:37:54;;;;;;;8.53;3.85;;;;;;;6.04;76.49;102264.83;1884727;76;21062;-67
2022/02/11 00:40:43;;;;;;;14.15;4.40;;;;;;;6.03;76.61;102265.72;1884907;76;21611;-67
2022/02/11 00:46:07;;;;;;;8.20;2.72;;;;;;;6.01;76.94;102246.95;1842561;76;21499;-58
2022/02/11 01:02:34;;;;;;;4.30;2.00;;;;;;;5.93;77.10;102238.60;1864081;76;21502;-61
2022/02/11 01:04:54;;;;;;;3.55;1.87;;;;;;;5.95;77.21;102241.23;1845538;77;21055;-65
2022/02/11 01:07:23;;;;;;;4.55;1.98;;;;;;;5.96;77.17;102245.64;1842668;78;21109;-65
2022/02/11 01:09:52;;;;;;;3.67;1.75;;;;;;;5.98;77.07;102229.52;1842822;78;21477;-62
2022/02/11 01:12:21;;;;;;;2.98;1.20;;;;;;;5.98;77.37;102230.83;1842678;78;21567;-59
2022/02/11 01:14:52;;;;;;;3.95;1.40;;;;;;;5.98;77.62;102232.13;1842711;78;21125;-62
2022/02/11 01:17:38;;;;;;;4.42;1.20;;;;;;;5.96;77.78;102229.50;1843195;76;21133;-63
2022/02/11 01:20:14;;;;;;;2.20;1.12;;;;;;;5.97;77.87;102231.23;1843451;76;21133;-67
2022/02/11 01:22:50;;;;;;;3.15;1.35;;;;;;;5.96;78.16;102246.95;1843839;78;21607;-66
2022/02/11 01:38:27;;;;;;;2.42;1.30;;;;;;;6.00;78.61;102244.77;1834370;78;21023;-62
2022/02/11 01:51:41;;;;;;;7.05;2.12;;;;;;;6.03;78.46;102233.03;1834447;78;21094;-61
2022/02/11 01:57:00;;;;;;;3.08;1.90;;;;;;;6.07;78.40;102243.03;1811087;79;21083;-63
2022/02/11 02:02:52;;;;;;;5.95;2.27;;;;;;;6.07;78.44;102249.58;1811155;79;21035;-61
2022/02/11 02:05:11;;;;;;;3.55;2.15;;;;;;;6.07;78.49;102245.66;1807053;79;21839;-63
2022/02/11 02:16:10;;;;;;;6.53;2.30;;;;;;;6.09;78.30;102243.50;1811108;79;21115;-67
2022/02/11 02:21:36;;;;;;;6.25;2.33;;;;;;;6.09;78.30;102251.34;1811131;79;21114;-67
2022/02/11 02:37:17;;;;;;;7.17;3.08;;;;;;;6.13;78.42;102242.64;1816899;78;21140;-66
2022/02/11 02:43:31;;;;;;;5.10;1.45;;;;;;;6.14;78.42;102244.40;1812504;78;21083;-63
2022/02/11 02:50:49;;;;;;;4.08;2.02;;;;;;;6.16;78.39;102236.53;1817279;79;21141;-63
2022/02/11 02:58:32;;;;;;;1.75;1.35;;;;;;;6.22;78.21;102226.11;1817694;78;21492;-62
2022/02/11 03:01:18;;;;;;;12.68;2.90;;;;;;;6.22;78.10;102230.48;1817750;78;21026;-71
2022/02/11 03:15:02;;;;;;;8.48;2.70;;;;;;;6.24;78.08;102226.12;1804903;79;21128;-66
2022/02/11 03:56:05;;;;;;;6.50;2.50;;;;;;;6.42;77.48;102243.58;1843944;75;21157;-59
2022/02/11 04:20:49;;;;;;;6.65;2.30;;;;;;;6.44;77.54;102253.64;1886567;75;21131;-59
2022/02/11 04:52:44;;;;;;;5.45;2.40;;;;;;;6.38;77.63;102255.78;1863929;75;21175;-61
2022/02/11 04:53:52;;;;;;;10.68;2.85;;;;;;;6.31;77.63;102265.38;1897414;76;21021;-61
2022/02/11 04:55:40;;;;;;;4.28;2.20;;;;;;;6.34;77.54;102278.48;1893808;75;21470;-61
2022/02/11 05:00:56;;;;;;;7.62;2.42;;;;;;;6.35;77.43;102276.28;1873182;75;21049;-61
2022/02/11 05:03:24;;;;;;;6.12;2.27;;;;;;;6.36;77.40;102258.42;1871002;76;21175;-61
2022/02/11 05:05:54;;;;;;;3.47;1.62;;;;;;;6.37;77.38;102267.13;1869160;77;21042;-61
2022/02/11 05:08:25;;;;;;;5.35;1.72;;;;;;;6.38;77.30;102268.86;1839862;78;21035;-61
2022/02/11 05:10:56;;;;;;;6.87;2.37;;;;;;;6.36;77.19;102278.45;1839865;78;21059;-61
2022/02/11 05:13:26;;;;;;;3.47;1.80;;;;;;;6.36;77.13;102270.60;1839945;78;21486;-61
2022/02/11 05:15:54;;;;;;;7.45;2.52;;;;;;;6.35;77.12;102269.73;1880614;75;21463;-60
2022/02/11 05:18:23;;;;;;;4.15;1.85;;;;;;;6.31;77.19;102282.82;1897365;76;21553;-61
2022/02/11 05:20:52;;;;;;;6.33;2.58;;;;;;;6.29;77.11;102254.03;1897616;75;21455;-61
2022/02/11 05:23:21;;;;;;;6.37;1.77;;;;;;;6.30;76.85;102231.36;1897232;76;21479;-61
2022/02/11 05:25:50;;;;;;;5.33;2.45;;;;;;;6.30;76.62;102262.75;1897381;75;21060;-61
2022/02/11 05:28:18;;;;;;;4.45;1.95;;;;;;;6.31;76.48;102247.50;1897370;76;21448;-61
2022/02/11 05:30:47;;;;;;;6.08;1.67;;;;;;;6.30;76.20;102234.84;1867199;76;21311;-61
2022/02/11 05:33:16;;;;;;;4.62;1.80;;;;;;;6.30;76.07;102244.44;1857007;77;21123;-60
2022/02/11 05:35:44;;;;;;;3.70;1.75;;;;;;;6.31;75.92;102246.20;1856929;77;21052;-60
2022/02/11 05:38:13;;;;;;;5.10;2.00;;;;;;;6.32;75.71;102242.69;1849636;76;21473;-61
2022/02/11 05:40:44;;;;;;;6.50;1.85;;;;;;;6.31;75.51;102252.73;1871079;77;21476;-61
2022/02/11 05:43:13;;;;;;;5.45;1.98;;;;;;;6.32;75.35;102248.79;1868239;76;21078;-61
2022/02/11 05:45:42;;;;;;;8.70;1.70;;;;;;;6.32;74.76;102254.47;1868272;77;21396;-61
2022/02/11 05:48:11;;;;;;;5.35;1.50;;;;;;;6.33;74.76;102261.45;1885178;75;21102;-60
2022/02/11 05:50:39;;;;;;;4.90;2.15;;;;;;;6.33;74.52;102256.23;1869572;75;21590;-61
2022/02/11 05:53:10;;;;;;;3.52;1.15;;;;;;;6.33;73.71;102255.78;1868152;77;21078;-61
2022/02/11 05:55:41;;;;;;;4.97;1.85;;;;;;;6.34;73.74;102251.41;1858935;75;21107;-60
2022/02/11 05:58:10;;;;;;;2.77;1.17;;;;;;;6.36;73.39;102265.38;1846221;77;21448;-61
2022/02/11 06:00:39;;;;;;;3.92;1.35;;;;;;;6.38;73.18;102262.32;1820513;77;21557;-61
2022/02/11 06:03:07;;;;;;;5.83;1.57;;;;;;;6.40;72.99;102265.84;1819997;79;21491;-61
2022/02/11 06:05:36;;;;;;;4.75;1.80;;;;;;;6.43;73.02;102269.75;1843176;77;21021;-61
2022/02/11 06:08:05;;;;;;;3.75;1.65;;;;;;;6.45;72.69;102267.15;1857594;77;21075;-61
2022/02/11 06:10:34;;;;;;;3.72;2.00;;;;;;;6.46;72.51;102261.92;1857586;77;21486;-60
2022/02/11 06:13:03;;;;;;;2.42;1.57;;;;;;;6.46;71.93;102252.77;1857601;77;21118;-61
2022/02/11 06:15:31;;;;;;;6.97;3.00;;;;;;;6.47;71.81;102263.66;1857629;77;21008;-60
2022/02/11 06:18:00;;;;;;;4.58;1.50;;;;;;;6.50;71.52;102272.83;1862675;77;21048;-61
2022/02/11 06:20:28;;;;;;;3.35;1.22;;;;;;;6.48;71.41;102281.12;1862705;77;21114;-61
2022/02/11 06:22:58;;;;;;;6.10;1.27;;;;;;;6.50;71.59;102263.67;1862755;77;21096;-61
2022/02/11 06:25:27;;;;;;;4.37;1.27;;;;;;;6.54;71.38;102278.50;1862745;77;21443;-61
2022/02/11 06:27:56;;;;;;;6.35;2.22;;;;;;;6.57;71.40;102270.67;1862619;77;21529;-60
2022/02/11 06:30:25;;;;;;;5.15;1.80;;;;;;;6.61;71.26;102269.38;1858062;77;21407;-60
2022/02/11 06:32:55;;;;;;;1.60;1.02;;;;;;;6.64;71.21;102274.59;1857679;77;21008;-61
2022/02/11 06:35:25;;;;;;;4.10;1.40;;;;;;;6.66;71.24;102279.39;1857475;77;21052;-61
2022/02/11 06:37:53;;;;;;;1.47;1.12;;;;;;;6.67;71.38;102280.71;1840190;76;21427;-60
2022/02/11 06:40:23;;;;;;;2.95;1.25;;;;;;;6.70;71.15;102264.16;1832098;78;21136;-62
2022/02/11 06:42:51;;;;;;;4.50;1.50;;;;;;;6.69;70.93;102278.10;1831894;78;21491;-61
2022/02/11 06:45:20;;;;;;;2.87;1.52;;;;;;;6.65;70.82;102265.44;1832134;78;21072;-61
2022/02/11 06:47:49;;;;;;;3.35;2.08;;;;;;;6.64;70.82;102263.72;1827875;77;21119;-61
2022/02/11 06:50:18;;;;;;;3.65;1.55;;;;;;;6.65;71.04;102235.34;1820464;78;21036;-61
2022/02/11 06:52:49;;;;;;;6.67;1.60;;;;;;;6.63;71.11;102259.78;1820083;79;21012;-61
2022/02/11 06:55:18;;;;;;;9.28;1.80;;;;;;;6.64;71.27;102241.88;1835948;77;21184;-61
2022/02/11 06:57:47;;;;;;;4.83;2.27;;;;;;;6.67;71.23;102231.42;1866575;75;21098;-61
2022/02/11 07:00:17;;;;;;;4.28;1.95;;;;;;;6.68;71.20;102251.50;1900526;75;21657;-61
2022/02/11 07:02:46;;;;;;;3.22;1.77;;;;;;;6.70;71.19;102226.20;1900524;75;21080;-61
2022/02/11 07:05:17;;;;;;;2.55;1.17;;;;;;;6.71;71.44;102234.47;1900524;75;21431;-61
2022/02/11 07:07:47;;;;;;;4.03;1.40;;;;;;;6.72;71.63;102238.85;1900146;75;21087;-60
2022/02/11 07:10:16;;;;;;;4.60;1.50;;;;;;;6.75;71.85;102253.23;1900409;75;21099;-61
2022/02/11 07:12:45;;;;;;;8.60;2.12;;;;;;;6.76;71.94;102256.30;1887940;75;21160;-61
2022/02/11 07:15:13;;;;;;;4.95;1.20;;;;;;;6.75;71.87;102255.84;1867160;76;21483;-61
2022/02/11 07:17:42;;;;;;;2.15;1.22;;;;;;;6.79;71.84;102239.70;1897235;75;21474;-62
2022/02/11 07:20:12;;;;;;;1.92;1.20;;;;;;;6.85;71.55;102239.29;1900289;75;21471;-62
2022/02/11 07:22:41;;;;;;;6.12;1.40;;;;;;;6.92;71.43;102244.97;1894195;75;21036;-61
2022/02/11 07:25:13;;;;;;;4.95;2.08;;;;;;;6.92;70.48;102238.42;1869484;75;21055;-60
2022/02/11 07:27:42;;;;;;;4.45;1.42;;;;;;;6.91;70.00;102242.34;1867669;75;21142;-61
2022/02/11 07:30:12;;;;;;;4.70;1.87;;;;;;;6.90;70.03;102240.17;1867876;77;21487;-61
2022/02/11 07:32:40;;;;;;;4.30;1.52;;;;;;;6.92;69.84;102241.48;1867974;77;21059;-61
2022/02/11 07:35:09;;;;;;;3.20;1.65;;;;;;;6.91;69.82;102257.61;1867916;77;21055;-60
2022/02/11 07:37:38;;;;;;;6.08;1.65;;;;;;;6.90;69.82;102255.02;1868041;76;21047;-61
2022/02/11 07:40:08;;;;;;;3.85;1.50;;;;;;;6.91;69.74;102251.06;1867869;76;21102;-61
2022/02/11 07:42:37;;;;;;;6.53;2.42;;;;;;;6.94;69.18;102209.63;1868173;77;21083;-61
2022/02/11 07:45:06;;;;;;;3.08;1.87;;;;;;;6.94;68.97;102260.69;1867977;77;21313;-61
2022/02/11 07:47:34;;;;;;;5.90;2.00;;;;;;;6.91;68.92;102231.42;1867876;77;21200;-60
2022/02/11 07:50:04;;;;;;;2.20;1.12;;;;;;;6.90;69.14;102245.41;1867780;77;21075;-61
2022/02/11 07:52:33;;;;;;;5.55;1.80;;;;;;;6.91;69.36;102260.23;1870481;75;21020;-61
2022/02/11 07:55:02;;;;;;;6.00;1.80;;;;;;;6.95;68.98;102229.27;1900118;75;21024;-62
2022/02/11 07:57:31;;;;;;;5.95;1.75;;;;;;;6.94;68.86;102249.77;1900321;75;21060;-61
2022/02/11 08:00:04;;;;;;;2.17;1.40;;;;;;;6.91;68.45;102220.95;1900385;75;21205;-61
2022/02/11 08:02:36;;;;;;;4.90;1.90;;;;;;;6.92;68.23;102227.08;1899591;75;21060;-61
2022/02/11 08:05:06;;;;;;;3.08;1.30;;;;;;;6.89;67.69;102258.05;1868673;75;21064;-61
2022/02/11 08:07:35;;;;;;;5.03;2.15;;;;;;;6.93;67.91;102234.95;1868284;77;21117;-60
2022/02/11 08:10:04;;;;;;;3.83;2.22;;;;;;;6.99;67.99;102242.34;1868174;77;21502;-60
2022/02/11 08:12:34;;;;;;;3.12;1.30;;;;;;;7.07;67.36;102241.47;1868142;76;21110;-61
2022/02/11 08:15:05;;;;;;;5.45;1.77;;;;;;;7.12;67.01;102240.17;1868303;77;21045;-60
2022/02/11 08:17:34;;;;;;;7.80;1.70;;;;;;;7.18;66.64;102237.54;1867992;76;21043;-60
2022/02/11 08:20:04;;;;;;;2.33;1.40;;;;;;;7.24;66.99;102228.35;1868144;76;21451;-61
2022/02/11 08:22:32;;;;;;;3.08;1.57;;;;;;;7.29;66.58;102237.09;1868283;77;21106;-61
2022/02/11 08:25:01;;;;;;;4.42;1.82;;;;;;;7.36;66.48;102239.27;1868132;77;21467;-61
2022/02/11 08:27:30;;;;;;;6.92;1.32;;;;;;;7.42;66.62;102230.52;1867728;77;21023;-61
2022/02/11 08:29:59;;;;;;;4.20;1.82;;;;;;;7.41;66.25;102202.56;1868406;76;21548;-60
2022/02/11 08:32:29;;;;;;;5.03;1.52;;;;;;;7.41;65.68;102230.94;1868008;77;21163;-61
2022/02/11 08:34:59;;;;;;;7.53;1.65;;;;;;;7.52;65.93;102220.44;1868213;77;21117;-60
2022/02/11 08:37:27;;;;;;;5.87;1.60;;;;;;;7.65;65.51;102218.20;1868088;76;21067;-61
2022/02/11 08:39:56;;;;;;;5.20;1.75;;;;;;;7.71;64.93;102214.27;1870108;75;21502;-60
2022/02/11 08:42:25;;;;;;;2.65;1.00;;;;;;;7.78;64.96;102228.66;1868084;77;21466;-61
2022/02/11 08:44:54;;;;;;;10.80;1.87;;;;;;;7.87;64.61;102223.38;1868163;77;21171;-60
2022/02/11 08:47:22;;;;;;;2.92;1.00;;;;;;;7.95;63.98;102209.81;1868240;77;21141;-60
2022/02/11 08:49:51;;;;;;;3.65;1.40;;;;;;;8.01;63.75;102220.72;1867939;76;21482;-61
2022/02/11 08:52:25;;;;;;;4.35;1.80;;;;;;;8.18;63.74;102187.83;1867858;77;21477;-61
2022/02/11 08:54:50;;;;;;;3.77;1.95;;;;;;;8.32;62.51;102184.69;1867219;77;21048;-61
2022/02/11 08:57:19;;;;;;;2.30;1.20;;;;;;;8.39;62.39;102201.23;1861060;77;21092;-61
2022/02/11 08:59:48;;;;;;;17.25;3.40;;;;;;;8.49;62.40;102197.27;1859019;76;21487;-61
2022/02/11 09:02:17;;;;;;;6.53;2.02;;;;;;;8.53;61.61;102182.82;1857440;77;21530;-61
2022/02/11 09:04:46;;;;;;;3.55;1.52;;;;;;;8.55;61.29;102191.55;1857838;77;21100;-61
2022/02/11 09:07:16;;;;;;;7.08;1.72;;;;;;;8.56;61.15;102156.52;1857917;77;21129;-61
2022/02/11 09:09:45;;;;;;;3.98;1.47;;;;;;;8.44;61.28;102189.86;1858540;76;21102;-61
2022/02/11 09:12:14;;;;;;;5.17;1.70;;;;;;;8.79;60.62;102196.60;1857693;77;21467;-60
2022/02/11 09:14:42;;;;;;;4.20;2.92;;;;;;;8.67;60.53;102212.48;1857637;77;21048;-62
2022/02/11 09:17:11;;;;;;;3.77;1.27;;;;;;;8.52;60.58;102199.44;1858828;76;21139;-61
2022/02/11 09:19:39;;;;;;;1.77;1.07;;;;;;;8.58;61.29;102157.41;1858694;76;21005;-61
2022/02/11 09:22:08;;;;;;;5.47;1.85;;;;;;;8.76;60.89;102183.52;1859817;76;21475;-61
2022/02/11 09:24:37;;;;;;;2.75;1.35;;;;;;;9.66;58.56;102155.41;1857826;77;21079;-61
2022/02/11 09:27:06;;;;;;;2.25;1.32;;;;;;;10.31;57.01;102170.34;1858589;76;21060;-61
2022/02/11 09:29:35;;;;;;;2.17;1.15;;;;;;;10.35;56.40;102144.38;1857601;77;21041;-61
2022/02/11 09:32:06;;;;;;;1.98;1.60;;;;;;;10.21;55.77;102154.22;1857568;77;21114;-60
2022/02/11 09:34:37;;;;;;;2.45;1.20;;;;;;;11.11;54.47;102142.63;1857604;77;21045;-61
2022/02/11 09:37:05;;;;;;;4.95;1.80;;;;;;;11.85;51.32;102150.83;1859215;76;21084;-62
2022/02/11 09:39:34;;;;;;;5.53;1.85;;;;;;;11.15;52.29;102157.49;1857859;77;21497;-61
2022/02/11 09:42:03;;;;;;;4.03;1.72;;;;;;;12.56;50.59;102156.70;1857779;77;21134;-61
2022/02/11 09:44:33;;;;;;;7.50;1.32;;;;;;;13.16;47.56;102159.56;1857651;77;21102;-61
2022/02/11 09:47:02;;;;;;;3.60;1.50;;;;;;;13.64;46.37;102171.02;1858671;76;21094;-61
2022/02/11 09:49:31;;;;;;;3.77;1.45;;;;;;;13.91;45.18;102166.70;1857605;77;21076;-61
2022/02/11 09:52:00;;;;;;;4.08;1.50;;;;;;;13.95;45.45;102202.76;1857756;77;21052;-61
2022/02/11 09:54:32;;;;;;;2.42;1.30;;;;;;;14.20;44.85;102187.00;1857510;77;21068;-61
2022/02/11 09:57:01;;;;;;;5.55;1.32;;;;;;;13.72;44.00;102176.95;1858935;77;21154;-61
2022/02/11 09:59:30;;;;;;;3.27;1.02;;;;;;;13.82;44.61;102166.51;1859693;76;21072;-61
2022/02/11 10:02:01;;;;;;;2.92;1.37;;;;;;;14.02;44.05;102188.89;1857873;77;21443;-61
2022/02/11 10:04:29;;;;;;;4.67;1.77;;;;;;;13.93;43.95;102168.84;1857728;77;21041;-60
2022/02/11 10:07:00;;;;;;;8.73;2.80;;;;;;;13.47;43.86;102184.74;1857493;77;21169;-62
2022/02/11 10:09:29;;;;;;;3.90;1.40;;;;;;;12.73;45.42;102185.34;1857642;77;21076;-61
2022/02/11 10:11:57;;;;;;;3.35;1.07;;;;;;;12.11;46.59;102176.67;1857611;77;21627;-60
2022/02/11 10:14:34;;;;;;;9.60;1.87;;;;;;;11.09;48.88;102181.34;1868649;77;21052;-61
2022/02/11 10:17:14;;;;;;;1.32;1.00;;;;;;;10.56;50.53;102169.95;1869061;76;21041;-61
2022/02/11 10:19:44;;;;;;;2.17;1.07;;;;;;;10.47;51.67;102191.16;1868732;76;21591;-61
2022/02/11 10:22:16;;;;;;;2.70;1.45;;;;;;;10.30;52.13;102182.17;1869365;77;21040;-61
2022/02/11 10:24:46;;;;;;;4.30;1.55;;;;;;;10.38;52.29;102176.37;1868449;77;21102;-62
2022/02/11 10:27:26;;;;;;;3.52;1.25;;;;;;;10.01;52.94;102167.23;1869520;77;21459;-61
2022/02/11 10:30:12;;;;;;;2.17;1.42;;;;;;;9.64;53.35;102185.23;1869246;77;21072;-62
2022/02/11 10:32:52;;;;;;;3.15;1.40;;;;;;;9.18;54.82;102194.48;1869449;77;21115;-61
2022/02/11 10:35:26;;;;;;;5.22;1.50;;;;;;;8.99;55.63;102190.31;1868556;77;21005;-61
2022/02/11 10:38:13;;;;;;;3.52;1.85;;;;;;;8.97;55.66;102199.97;1868902;76;21135;-62
2022/02/11 10:40:44;;;;;;;4.42;1.10;;;;;;;8.89;56.37;102193.48;1869343;77;21537;-61
2022/02/11 10:43:29;;;;;;;2.08;1.32;;;;;;;8.85;56.54;102187.38;1869330;77;21041;-61
2022/02/11 10:46:19;;;;;;;5.20;1.32;;;;;;;8.88;56.71;102185.16;1804210;78;21590;-60
2022/02/11 10:48:48;;;;;;;1.87;1.00;;;;;;;8.84;56.39;102190.02;1801819;80;21032;-62
2022/02/11 10:51:24;;;;;;;3.65;1.45;;;;;;;8.99;56.31;102181.98;1802185;78;21061;-61
2022/02/11 10:53:53;;;;;;;4.83;1.30;;;;;;;9.19;55.84;102168.65;1801754;80;21061;-61
2022/02/11 10:56:23;;;;;;;5.05;1.62;;;;;;;8.97;56.17;102168.45;1801854;80;21614;-61
2022/02/11 10:58:58;;;;;;;1.77;1.05;;;;;;;8.84;56.50;102180.81;1801761;80;21092;-60
2022/02/11 11:01:29;;;;;;;5.83;1.30;;;;;;;8.67;56.99;102175.27;1802372;78;21641;-61
2022/02/11 11:03:59;;;;;;;2.33;1.10;;;;;;;8.60;57.47;102183.20;1801845;80;21094;-61
2022/02/11 11:06:30;;;;;;;3.80;1.50;;;;;;;8.44;57.71;102163.61;1801741;80;21496;-61
2022/02/11 11:09:00;;;;;;;4.15;1.32;;;;;;;8.33;57.99;102172.42;1801779;80;21155;-62
2022/02/11 11:11:29;;;;;;;3.80;1.10;;;;;;;8.28;58.37;102164.56;1801754;80;21057;-62
2022/02/11 11:14:00;;;;;;;1.87;1.05;;;;;;;8.18;58.62;102171.63;1823333;78;21634;-61
2022/02/11 11:16:30;;;;;;;3.67;1.45;;;;;;;8.17;59.01;102171.64;1826547;78;21479;-61
2022/02/11 11:18:59;;;;;;;3.10;1.50;;;;;;;8.21;59.27;102169.45;1825733;78;21051;-62
2022/02/11 11:21:29;;;;;;;2.70;1.22;;;;;;;8.31;59.18;102140.94;1801875;80;21095;-61
2022/02/11 11:24:00;;;;;;;5.25;1.75;;;;;;;8.43;58.79;102175.02;1801769;80;21478;-62
2022/02/11 11:26:37;;;;;;;3.33;1.40;;;;;;;8.34;58.75;102147.48;1801711;80;21099;-61
2022/02/11 11:29:22;;;;;;;1.55;0.95;;;;;;;8.35;58.67;102153.59;1801769;80;21133;-61
2022/02/11 11:31:59;;;;;;;4.15;1.30;;;;;;;8.31;58.00;102147.50;1828887;78;21564;-62
2022/02/11 11:34:31;;;;;;;3.30;0.90;;;;;;;8.23;57.28;102137.52;1831865;78;21028;-63
2022/02/11 11:37:05;;;;;;;3.85;1.70;;;;;;;8.16;57.01;102156.80;1832078;78;21192;-60
2022/02/11 11:39:34;;;;;;;2.35;1.00;;;;;;;8.11;56.56;102136.71;1831662;78;21126;-62
2022/02/11 11:42:11;;;;;;;2.20;1.10;;;;;;;8.08;56.63;102130.16;1804578;78;21083;-61
2022/02/11 11:44:52;;;;;;;1.40;1.00;;;;;;;8.03;56.94;102139.81;1805862;78;21121;-62
2022/02/11 11:47:36;;;;;;;2.17;0.80;;;;;;;8.04;56.96;102148.13;1832037;78;21098;-61
2022/02/11 11:50:08;;;;;;;4.40;1.10;;;;;;;8.03;56.63;102118.82;1832103;78;21056;-61
2022/02/11 11:52:54;;;;;;;4.35;1.30;;;;;;;8.14;56.76;102120.52;1826866;77;21064;-61
2022/02/11 11:55:25;;;;;;;2.67;1.07;;;;;;;8.28;56.20;102130.03;1824981;78;21119;-62
2022/02/11 11:57:54;;;;;;;3.80;1.55;;;;;;;8.58;55.40;102132.47;1826159;77;21040;-61
2022/02/11 12:00:39;;;;;;;2.05;1.25;;;;;;;8.46;55.65;102142.16;1825417;78;21048;-60
2022/02/11 12:03:07;;;;;;;2.10;1.05;;;;;;;8.50;55.83;102126.84;1825298;78;21048;-61
2022/02/11 12:06:00;;;;;;;3.85;1.42;;;;;;;8.48;56.07;102127.30;1825085;77;21057;-61
2022/02/11 12:08:29;;;;;;;2.15;1.25;;;;;;;8.43;56.38;102130.39;1824313;78;21515;-61
2022/02/11 12:10:53;;;;;;;3.62;1.27;;;;;;;8.72;55.34;102115.27;1824385;78;21135;-62
2022/02/11 12:13:22;;;;;;;4.70;1.40;;;;;;;8.50;54.79;102115.02;1825360;78;21612;-60
2022/02/11 12:15:51;;;;;;;3.70;1.12;;;;;;;8.41;55.09;102115.48;1828505;77;21486;-61
2022/02/11 12:18:20;;;;;;;3.47;0.90;;;;;;;8.33;55.23;102073.56;1832161;78;21612;-60
2022/02/11 12:20:49;;;;;;;3.02;1.12;;;;;;;8.20;55.14;102091.60;1832245;78;21479;-61
2022/02/11 12:28:51;;;;;;;1.92;1.00;;;;;;;7.88;56.04;102123.72;1857781;77;21111;-61
2022/02/11 12:31:26;;;;;;;1.45;0.95;;;;;;;7.78;56.60;102092.31;1857982;77;21130;-61
2022/02/11 12:34:12;;;;;;;2.60;1.30;;;;;;;7.72;57.22;102111.13;1857706;77;21475;-61
2022/02/11 12:36:41;;;;;;;4.10;1.40;;;;;;;7.66;57.85;102120.79;1854177;77;21612;-62
2022/02/11 12:39:18;;;;;;;3.83;1.32;;;;;;;7.65;58.18;102132.14;1831916;78;21459;-63
2022/02/11 12:41:50;;;;;;;3.33;1.10;;;;;;;7.62;58.39;102122.55;1832066;78;21161;-61
2022/02/11 12:44:30;;;;;;;7.62;1.15;;;;;;;7.59;58.53;102122.55;1831964;78;21072;-60
2022/02/11 12:47:00;;;;;;;1.22;0.70;;;;;;;7.58;58.85;102128.70;1835860;78;21085;-60
2022/02/11 12:49:35;;;;;;;2.70;1.00;;;;;;;7.57;58.85;102114.28;1837247;78;21017;-59
2022/02/11 12:52:01;;;;;;;3.83;1.22;;;;;;;7.57;59.01;102122.14;1833635;77;21189;-60
2022/02/11 12:54:30;;;;;;;3.77;1.62;;;;;;;7.57;59.33;102120.83;1830150;78;21040;-60
2022/02/11 12:57:08;;;;;;;2.47;1.07;;;;;;;7.73;59.32;102114.19;1830211;78;21030;-60
2022/02/11 12:59:38;;;;;;;3.80;1.10;;;;;;;7.81;59.02;102103.66;1829969;78;21138;-59
2022/02/11 13:02:10;;;;;;;2.65;1.00;;;;;;;7.88;58.78;102113.23;1831317;77;21043;-60
2022/02/11 13:04:38;;;;;;;5.20;1.10;;;;;;;7.87;58.07;102118.48;1835464;78;21079;-60
2022/02/11 13:07:07;;;;;;;2.40;1.22;;;;;;;7.82;57.06;102101.89;1836437;78;21079;-60
2022/02/11 13:09:37;;;;;;;4.28;1.57;;;;;;;7.80;57.03;102095.80;1837138;78;21502;-59
2022/02/11 13:12:07;;;;;;;2.50;1.15;;;;;;;7.76;57.17;102091.45;1837034;78;21141;-60
2022/02/11 13:14:39;;;;;;;2.77;1.00;;;;;;;7.79;57.42;102101.94;1837074;78;21027;-60
2022/02/11 13:17:12;;;;;;;4.78;1.10;;;;;;;7.73;57.39;102087.97;1847756;77;21060;-59
2022/02/11 13:19:40;;;;;;;2.90;1.15;;;;;;;7.69;57.65;102083.63;1867843;77;21051;-60
2022/02/11 13:22:09;;;;;;;1.07;0.70;;;;;;;7.62;58.16;102083.23;1868205;77;21052;-60
2022/02/11 13:24:38;;;;;;;3.92;1.12;;;;;;;7.58;58.59;102085.45;1868069;77;21071;-60
2022/02/11 13:27:07;;;;;;;2.92;1.12;;;;;;;7.51;59.00;102092.45;1862290;76;21479;-60
2022/02/11 13:29:36;;;;;;;0.70;0.70;;;;;;;7.47;59.52;102080.25;1837095;78;21211;-59
2022/02/11 13:32:05;;;;;;;5.40;1.10;;;;;;;7.45;59.75;102075.45;1837106;78;21160;-60
2022/02/11 13:34:34;;;;;;;2.40;1.20;;;;;;;7.41;59.94;102075.02;1837222;78;21057;-60
2022/02/11 13:37:06;;;;;;;2.50;0.80;;;;;;;7.36;60.45;102054.53;1837132;78;21077;-59
2022/02/11 13:39:35;;;;;;;2.15;0.90;;;;;;;7.32;60.78;102077.27;1837728;77;21065;-60
2022/02/11 13:42:14;;;;;;;2.20;0.85;;;;;;;7.27;61.45;102093.43;1837054;78;21533;-60
2022/02/11 13:44:44;;;;;;;4.33;1.12;;;;;;;7.21;61.84;102081.67;1837092;78;21057;-60
2022/02/11 13:47:18;;;;;;;3.40;1.10;;;;;;;7.22;62.53;102073.37;1828487;78;21065;-60
2022/02/11 13:49:51;;;;;;;1.70;0.72;;;;;;;7.20;62.89;102081.22;1808124;78;21126;-60
2022/02/11 13:55:10;;;;;;;4.62;1.00;;;;;;;7.23;62.98;102078.61;1801820;80;21092;-59
2022/02/11 13:57:39;;;;;;;3.95;1.10;;;;;;;7.22;62.96;102072.92;1801800;80;21111;-59
2022/02/11 14:00:37;;;;;;;3.33;1.30;;;;;;;7.21;63.05;102072.50;1803997;78;21062;-59
2022/02/11 14:03:05;;;;;;;7.12;1.12;;;;;;;7.18;63.01;102067.27;1801857;80;21078;-59
2022/02/11 14:05:47;;;;;;;6.47;1.00;;;;;;;7.17;62.83;102085.16;1801786;80;21470;-60
2022/02/11 14:08:17;;;;;;;8.68;1.55;;;;;;;7.14;62.77;102091.73;1801796;80;21001;-60
2022/02/11 14:10:47;;;;;;;4.12;1.10;;;;;;;7.07;62.79;102095.25;1803861;78;21083;-60
2022/02/11 14:13:16;;;;;;;3.55;1.47;;;;;;;7.01;62.96;102084.77;1801734;80;21210;-60
2022/02/11 14:15:45;;;;;;;2.87;1.07;;;;;;;6.96;63.10;102084.79;1801813;80;21467;-60
2022/02/11 14:18:13;;;;;;;7.28;1.50;;;;;;;6.94;63.06;102090.48;1801783;80;21120;-60
2022/02/11 14:20:42;;;;;;;3.42;0.80;;;;;;;6.93;63.12;102084.37;1803885;78;21094;-60
2022/02/11 14:23:15;;;;;;;1.52;0.90;;;;;;;6.92;63.19;102086.55;1801918;80;21362;-60
2022/02/11 14:25:46;;;;;;;0.98;0.88;;;;;;;6.88;62.78;102075.66;1801939;80;21074;-61
2022/02/11 14:28:16;;;;;;;3.37;1.42;;;;;;;6.87;62.61;102087.43;1801914;80;21128;-60
2022/02/11 14:30:46;;;;;;;4.87;0.98;;;;;;;6.88;62.53;102092.67;1803643;78;21025;-60
2022/02/11 14:33:14;;;;;;;1.65;1.00;;;;;;;6.85;61.90;102082.20;1801805;80;21103;-60
2022/02/11 14:35:44;;;;;;;2.22;1.10;;;;;;;6.81;61.51;102091.38;1801895;80;21089;-60
2022/02/11 14:38:12;;;;;;;1.12;0.80;;;;;;;6.76;61.44;102084.83;1801798;80;21542;-60
2022/02/11 14:41:46;;;;;;;0.70;0.70;;;;;;;6.70;61.42;102079.61;1801751;80;21108;-60
2022/02/11 14:43:11;;;;;;;3.17;1.00;;;;;;;6.61;60.94;102091.41;1799358;79;21116;-60
2022/02/11 14:45:40;;;;;;;1.60;0.82;;;;;;;6.54;60.79;102086.16;1801782;80;21472;-60
2022/02/11 14:48:09;;;;;;;2.10;0.98;;;;;;;6.50;60.89;102090.95;1797144;80;21091;-60
2022/02/11 14:50:38;;;;;;;3.83;1.00;;;;;;;6.46;60.58;102063.06;1795177;80;21524;-61
2022/02/11 14:53:06;;;;;;;1.30;0.98;;;;;;;6.41;60.81;102093.58;1804782;78;21064;-60
2022/02/11 14:55:35;;;;;;;3.33;0.90;;;;;;;6.37;60.50;102094.45;1809213;78;21056;-60
2022/02/11 14:58:04;;;;;;;2.05;1.10;;;;;;;6.30;60.83;102094.02;1808991;79;21075;-59
2022/02/11 15:00:33;;;;;;;1.30;0.98;;;;;;;6.27;60.92;102067.84;1809093;79;21153;-60
2022/02/11 15:03:02;;;;;;;1.10;0.75;;;;;;;6.28;60.86;102082.23;1808243;79;21592;-61
2022/02/11 15:05:31;;;;;;;2.52;1.02;;;;;;;6.31;60.85;102082.25;1809287;79;21036;-60
2022/02/11 15:08:00;;;;;;;1.52;0.90;;;;;;;6.34;60.92;102078.34;1809188;79;21052;-60
2022/02/11 15:10:29;;;;;;;2.42;1.00;;;;;;;6.36;61.06;102070.05;1809173;79;21114;-60